createdAt,value
2023-02-17T00:03:33.105Z,11.53
2023-02-17T00:08:35.044Z,11.51
2023-02-17T00:13:36.604Z,11.50
2023-02-17T00:18:38.093Z,11.42
2023-02-17T00:23:39.582Z,11.49
2023-02-17T00:28:41.714Z,11.38
2023-02-17T00:33:43.679Z,11.29
2023-02-17T00:38:46.618Z,11.20
2023-02-17T00:43:49.503Z,11.26
2023-02-17T00:48:51.130Z,11.25
2023-02-17T00:53:52.666Z,11.35
2023-02-17T00:58:54.108Z,11.33
2023-02-17T01:03:55.578Z,11.38
2023-02-17T01:08:57.062Z,11.41
2023-02-17T01:14:01.789Z,11.33
2023-02-17T01:19:09.309Z,11.43
2023-02-17T01:24:12.493Z,11.42
2023-02-17T01:29:13.983Z,11.45
2023-02-17T01:34:15.489Z,11.55
2023-02-17T01:39:17.230Z,11.53
2023-02-17T01:44:23.805Z,11.38
2023-02-17T01:49:36.574Z,11.35
2023-02-17T01:54:46.331Z,11.45
2023-02-17T01:59:48.700Z,11.47
2023-02-17T02:04:53.233Z,11.51
2023-02-17T02:09:56.824Z,11.55
2023-02-17T02:15:06.418Z,11.49
2023-02-17T02:20:28.401Z,11.50
2023-02-17T02:25:51.678Z,11.52
2023-02-17T02:31:15.343Z,11.59
2023-02-17T02:36:29.483Z,11.65
2023-02-17T02:41:36.245Z,11.75
2023-02-17T02:46:38.462Z,11.66
2023-02-17T02:51:51.244Z,11.93
2023-02-17T02:57:06.937Z,12.09
2023-02-17T03:02:24.120Z,12.23
2023-02-17T03:07:33.787Z,12.20
2023-02-17T03:12:38.316Z,12.27
2023-02-17T03:17:40.224Z,12.28
2023-02-17T03:22:45.705Z,12.36
2023-02-17T03:27:48.836Z,12.37
2023-02-17T03:32:50.851Z,12.32
2023-02-17T03:37:52.365Z,12.22
2023-02-17T03:42:53.903Z,12.23
2023-02-17T03:47:55.358Z,12.30
2023-02-17T03:52:56.839Z,12.40
2023-02-17T03:57:58.322Z,12.37
2023-02-17T04:02:59.779Z,12.39
2023-02-17T04:08:01.232Z,12.35
2023-02-17T04:13:02.712Z,12.43
2023-02-17T04:18:04.174Z,12.31
2023-02-17T04:23:05.664Z,12.31
2023-02-17T04:28:07.544Z,12.40
2023-02-17T04:33:09.015Z,12.50
2023-02-17T04:38:11.027Z,12.34
2023-02-17T04:43:12.542Z,12.41
2023-02-17T04:48:14.067Z,12.42
2023-02-17T04:53:15.918Z,12.39
2023-02-17T04:58:18.000Z,12.54
2023-02-17T05:03:19.696Z,12.57
2023-02-17T05:08:21.311Z,12.54
2023-02-17T05:13:22.841Z,12.45
2023-02-17T05:18:24.303Z,12.46
2023-02-17T05:23:25.779Z,12.46
2023-02-17T05:28:27.344Z,12.47
2023-02-17T05:33:29.089Z,12.44
2023-02-17T05:38:30.664Z,12.48
2023-02-17T05:43:32.487Z,12.47
2023-02-17T05:48:34.047Z,12.58
2023-02-17T05:53:35.481Z,12.53
2023-02-17T05:58:37.036Z,12.47
2023-02-17T06:03:38.976Z,12.41
2023-02-17T06:08:40.420Z,12.51
2023-02-17T06:13:41.927Z,12.43
2023-02-17T06:18:43.397Z,12.54
2023-02-17T06:23:45.005Z,12.40
2023-02-17T06:28:46.581Z,12.24
2023-02-17T06:33:48.112Z,12.34
2023-02-17T06:38:49.658Z,12.46
2023-02-17T06:43:51.088Z,12.44
2023-02-17T06:48:52.571Z,12.45
2023-02-17T06:53:54.362Z,12.60
2023-02-17T06:58:55.857Z,12.64
2023-02-17T07:03:57.568Z,12.77
2023-02-17T07:08:59.060Z,12.88
2023-02-17T07:14:00.587Z,12.89
2023-02-17T07:19:02.065Z,13.04
2023-02-17T07:24:03.651Z,13.20
2023-02-17T07:29:06.484Z,13.43
2023-02-17T07:34:07.960Z,13.44
2023-02-17T07:39:09.439Z,13.36
2023-02-17T07:44:10.883Z,13.42
2023-02-17T07:49:14.749Z,13.29
2023-02-17T07:54:16.231Z,13.19
2023-02-17T07:59:17.722Z,13.26
2023-02-17T08:04:19.983Z,13.17
2023-02-17T08:09:21.458Z,13.20
2023-02-17T08:14:24.779Z,13.11
2023-02-17T08:19:31.739Z,13.17
2023-02-17T08:24:41.024Z,13.19
2023-02-17T08:29:43.263Z,13.26
2023-02-17T08:34:44.833Z,13.42
2023-02-17T08:39:46.329Z,13.57
2023-02-17T08:44:47.798Z,13.53
2023-02-17T08:49:49.331Z,13.65
2023-02-17T08:54:52.549Z,13.65
2023-02-17T08:59:54.311Z,13.76
2023-02-17T09:04:55.834Z,13.74
2023-02-17T09:09:57.437Z,13.83
2023-02-17T09:14:58.918Z,13.93
2023-02-17T09:20:00.406Z,14.01
2023-02-17T09:25:02.360Z,14.01
2023-02-17T09:30:04.394Z,14.20
2023-02-17T09:35:06.250Z,14.29
2023-02-17T09:40:09.977Z,14.40
2023-02-17T09:45:22.130Z,14.49
2023-02-17T09:50:29.543Z,14.54
2023-02-17T09:55:49.141Z,14.50
2023-02-17T10:00:55.969Z,14.48
2023-02-17T10:06:20.512Z,14.56
2023-02-17T10:11:29.944Z,14.40
2023-02-17T10:16:50.254Z,14.48
2023-02-17T10:22:02.169Z,14.36
2023-02-17T10:27:18.929Z,14.30
2023-02-17T10:32:25.828Z,14.41
2023-02-17T10:37:39.278Z,14.60
2023-02-17T10:42:40.818Z,14.29
2023-02-17T10:47:42.515Z,14.37
2023-02-17T10:52:44.008Z,14.47
2023-02-17T10:57:50.191Z,14.89
2023-02-17T11:02:53.255Z,15.20
2023-02-17T11:08:04.536Z,15.58
2023-02-17T11:13:37.150Z,15.96
2023-02-17T11:18:47.422Z,15.80
2023-02-17T11:23:55.305Z,15.47
2023-02-17T11:29:11.242Z,15.28
2023-02-17T11:34:23.444Z,15.21
2023-02-17T11:39:24.983Z,15.42
2023-02-17T11:44:28.250Z,15.57
2023-02-17T11:49:42.872Z,15.60
2023-02-17T11:55:05.449Z,16.14
2023-02-17T12:00:27.944Z,15.81
2023-02-17T12:06:06.152Z,15.60
2023-02-17T12:11:24.000Z,15.60
2023-02-17T12:17:02.906Z,15.54
2023-02-17T12:22:16.672Z,15.57
2023-02-17T12:27:54.406Z,15.37
2023-02-17T12:33:19.969Z,15.44
2023-02-17T12:38:32.724Z,15.41
2023-02-17T12:43:50.233Z,15.38
2023-02-17T12:48:57.335Z,15.38
2023-02-17T12:54:15.587Z,15.38
2023-02-17T12:59:21.646Z,15.37
2023-02-17T13:04:25.492Z,15.54
2023-02-17T13:09:36.746Z,15.52
2023-02-17T13:14:56.316Z,15.51
2023-02-17T13:20:03.991Z,15.34
2023-02-17T13:53:23.501Z,15.24
2023-02-17T14:03:52.539Z,15.28
2023-02-17T14:08:54.337Z,15.30
2023-02-17T14:13:57.636Z,15.21
2023-02-17T14:19:03.752Z,15.26
2023-02-17T14:24:05.430Z,15.11
2023-02-17T14:29:09.563Z,15.09
2023-02-17T14:34:29.136Z,15.00
2023-02-17T14:39:30.636Z,15.07
2023-02-17T14:44:32.170Z,15.21
2023-02-17T14:49:33.717Z,15.34
2023-02-17T14:54:35.246Z,15.28
2023-02-17T14:59:36.758Z,15.27
2023-02-17T15:04:38.281Z,15.31
2023-02-17T15:09:40.628Z,15.26
2023-02-17T15:14:42.141Z,15.35
2023-02-17T15:19:43.609Z,15.38
2023-02-17T15:24:45.127Z,15.24
2023-02-17T15:29:46.610Z,15.31
2023-02-17T15:34:48.266Z,15.22
2023-02-17T15:39:49.772Z,15.22
2023-02-17T15:44:51.246Z,15.11
2023-02-17T15:49:52.683Z,15.22
2023-02-17T15:54:54.208Z,15.18
2023-02-17T15:59:55.754Z,15.06
2023-02-17T16:04:57.202Z,15.12
2023-02-17T16:09:58.626Z,15.03
2023-02-17T16:15:00.196Z,15.02
2023-02-17T16:20:01.761Z,15.00
2023-02-17T16:25:03.423Z,15.00
2023-02-17T16:30:35.585Z,14.91
2023-02-17T16:35:37.779Z,14.83
2023-02-17T16:40:42.938Z,14.75
2023-02-17T16:45:51.230Z,14.70
2023-02-17T16:50:52.998Z,14.60
2023-02-17T16:55:54.918Z,14.60
2023-02-17T17:00:56.399Z,14.55
2023-02-17T17:05:57.996Z,14.50
2023-02-17T17:10:59.494Z,14.44
2023-02-17T17:16:01.026Z,14.37
2023-02-17T17:21:02.592Z,14.27
2023-02-17T17:26:33.747Z,14.42
2023-02-17T17:31:35.334Z,14.46
2023-02-17T17:36:41.054Z,14.54
2023-02-17T17:41:42.685Z,14.64
2023-02-17T17:46:44.457Z,14.68
2023-02-17T17:51:46.081Z,14.61
2023-02-17T17:56:47.614Z,14.59
2023-02-17T18:01:49.208Z,14.61
2023-02-17T18:06:53.703Z,14.56
2023-02-17T18:11:56.765Z,14.51
2023-02-17T18:16:58.794Z,14.58
2023-02-17T18:22:00.326Z,14.49
2023-02-17T18:27:01.832Z,14.57
2023-02-17T18:32:03.424Z,14.49
2023-02-17T18:37:07.245Z,14.46
2023-02-17T18:42:08.780Z,14.50
2023-02-17T18:47:10.385Z,14.45
2023-02-17T18:52:11.860Z,14.43
2023-02-17T18:57:13.568Z,14.50
2023-02-17T19:02:15.052Z,14.53
2023-02-17T19:07:16.507Z,14.57
2023-02-17T19:12:18.104Z,14.48
2023-02-17T19:17:19.582Z,14.51
2023-02-17T19:22:21.135Z,14.36
2023-02-17T19:27:22.670Z,14.27
2023-02-17T19:32:24.180Z,14.35
2023-02-17T19:37:25.685Z,14.35
2023-02-17T19:42:27.245Z,14.47
2023-02-17T19:47:28.757Z,14.56
2023-02-17T19:52:30.204Z,14.56
2023-02-17T19:57:31.683Z,14.56
2023-02-17T20:02:33.260Z,14.60
2023-02-17T20:07:34.867Z,14.56
2023-02-17T20:12:37.022Z,14.55
2023-02-17T20:17:38.535Z,14.57
2023-02-17T20:22:40.531Z,14.60
2023-02-17T20:27:42.043Z,14.69
2023-02-17T20:32:43.533Z,14.78
2023-02-17T20:37:44.990Z,14.64
2023-02-17T20:42:46.485Z,14.69
2023-02-17T20:47:47.997Z,14.66
2023-02-17T20:52:49.900Z,14.75
2023-02-17T20:57:51.429Z,14.83
2023-02-17T21:02:53.148Z,14.76
2023-02-17T21:07:56.825Z,14.77
2023-02-17T21:12:58.323Z,14.75
2023-02-17T21:17:59.862Z,14.73
2023-02-17T21:23:01.318Z,14.68
2023-02-17T21:28:02.802Z,14.70
2023-02-17T21:33:04.319Z,14.77
2023-02-17T21:38:05.836Z,14.80
2023-02-17T21:43:07.325Z,14.79
2023-02-17T21:48:08.874Z,14.73
2023-02-17T21:53:10.379Z,14.67
2023-02-17T21:58:11.879Z,14.77
2023-02-17T22:03:13.318Z,14.71
2023-02-17T22:08:14.794Z,14.68
2023-02-17T22:13:16.252Z,14.74
2023-02-17T22:18:17.684Z,14.74
2023-02-17T22:23:19.127Z,14.79
2023-02-17T22:28:20.681Z,14.77
2023-02-17T22:33:22.192Z,14.78
2023-02-17T22:38:23.674Z,14.81
2023-02-17T22:43:25.223Z,14.68
2023-02-17T22:48:28.498Z,14.39
2023-02-17T22:53:30.026Z,14.43
2023-02-17T22:58:32.525Z,14.41
2023-02-17T23:03:34.955Z,14.34
2023-02-17T23:08:36.933Z,14.39
2023-02-17T23:13:38.934Z,14.39
2023-02-17T23:18:40.375Z,14.40
2023-02-17T23:23:41.886Z,14.33
2023-02-17T23:28:43.323Z,14.25
2023-02-17T23:33:44.743Z,14.11
2023-02-17T23:38:46.247Z,14.15
2023-02-17T23:43:47.702Z,14.03
2023-02-17T23:48:49.376Z,14.07
2023-02-17T23:53:51.242Z,14.01
2023-02-17T23:58:52.788Z,13.94
